ADDS METAR Data INFO
IDs: Format: Raw Decoded Include TAF

Data at: 0139 UTC 26 Feb 2018

KLMO 260115Z AUTO 26014G21KT 10SM CLR 02/M14 A2995 RMK AO2 T00231143
KLMO 260055Z AUTO 25011G21KT 10SM CLR 03/M15 A2995 RMK AO2 T00271150
KLMO 260035Z AUTO 24017G20KT 10SM CLR 03/M16 A2993 RMK AO2 T00311156
KLMO 260015Z AUTO 23016G20KT 10SM CLR 04/M15 A2991 RMK AO2 T00421154
KLMO 252355Z AUTO 25007KT 10SM CLR 05/M13 A2991 RMK AO2 T00501130
KLMO 252335Z AUTO 24005G14KT 10SM CLR 05/M14 A2989 RMK AO2 T00541142
KLMO 252315Z AUTO 26008KT 10SM CLR 06/M14 A2989 RMK AO2 T00561139
KLMO 252255Z AUTO 24010KT 10SM CLR 06/M15 A2989 RMK AO2 T00631155
KLMO 252235Z AUTO 26006G15KT 10SM CLR 06/M15 A2989 RMK AO2 T00631150
KLMO 252215Z AUTO 29012G18KT 250V320 10SM CLR 07/M16 A2989 RMK AO2 T00731158
KLMO 252155Z AUTO 28003G14KT 10SM CLR 07/M14 A2988 RMK AO2 T00721142
KLMO 252135Z AUTO 27007KT 10SM CLR 07/M16 A2987 RMK AO2 T00721164
KLMO 252115Z AUTO 00000KT 10SM CLR 07/M17 A2987 RMK AO2 T00711169
KLMO 252055Z AUTO 00000KT 10SM CLR 07/M16 A2986 RMK AO2 T00701162
KLMO 252035Z AUTO 32004KT 10SM CLR 07/M18 A2987 RMK AO2 T00701177
KLMO 252015Z AUTO 00000KT 10SM CLR 07/M18 A2987 RMK AO2 T00671176
KLMO 251955Z AUTO 00000KT 10SM CLR 07/M16 A2987 RMK AO2 T00661164
KLMO 251915Z AUTO 34004KT 10SM CLR 06/M16 A2988 RMK AO2 T00631164
KLMO 251855Z AUTO 29004KT 10SM CLR 06/M18 A2989 RMK AO2 T00581182
KLMO 251835Z AUTO 03003KT 10SM CLR 06/M19 A2989 RMK AO2 T00551186
KLMO 251815Z AUTO 32004KT 10SM CLR 06/M18 A2991 RMK AO2 T00571176
KLMO 251755Z AUTO 00000KT 10SM CLR 05/M18 A2991 RMK AO2 T00511183
KLMO 251735Z AUTO 31004G19KT 10SM CLR 04/M15 A2991 RMK AO2 T00371152
KLMO 251715Z AUTO 22012G19KT 10SM CLR 03/M16 A2991 RMK AO2 T00271162
KLMO 251655Z AUTO 24016G21KT 10SM CLR 03/M16 A2991 RMK AO2 T00281163
KLMO 251635Z AUTO 20005G18KT 10SM CLR 02/M15 A2992 RMK AO2 T00201153
KLMO 251615Z AUTO 22010KT 10SM CLR 01/M15 A2992 RMK AO2 T00141152
KLMO 251555Z AUTO 23010G14KT 10SM CLR 01/M15 A2993 RMK AO2 T00121151
KLMO 251535Z AUTO 23009KT 10SM CLR 01/M14 A2993 RMK AO2 T00061145
KLMO 251515Z AUTO 24011KT 10SM CLR 00/M15 A2992 RMK AO2 T00001146
KLMO 251455Z AUTO 24011KT 10SM CLR 00/M15 A2991 RMK AO2 T10051146
KLMO 251435Z AUTO 25013KT 10SM CLR M01/M15 A2991 RMK AO2 T10111147
KLMO 251415Z AUTO 25012G18KT 10SM CLR M01/M15 A2989 RMK AO2 T10151153
KLMO 251355Z AUTO 25012G18KT 10SM CLR M02/M15 A2988 RMK AO2 T10201155
KLMO 251335Z AUTO 26014G21KT 10SM CLR M02/M15 A2988 RMK AO2 T10191153
KLMO 251315Z AUTO 26014G27KT 210V280 10SM CLR M02/M15 A2986 RMK AO2 T10191152
KLMO 251255Z AUTO 26022G28KT 10SM CLR M02/M14 A2985 RMK AO2 T10211144
KLMO 251235Z AUTO 27022G30KT 10SM CLR M02/M14 A2984 RMK AO2 T10201143
KLMO 251215Z AUTO 26017G27KT 10SM CLR M02/M14 A2983 RMK AO2 T10201142
KLMO 251155Z AUTO 26011G21KT 10SM CLR M02/M15 A2983 RMK AO2 T10171154
KLMO 251135Z AUTO 27016G20KT 10SM CLR M02/M15 A2983 RMK AO2 T10171155
KLMO 251115Z AUTO 28011G15KT 10SM CLR M02/M16 A2982 RMK AO2 T10221156
KLMO 251055Z AUTO 29013G19KT 10SM CLR M02/M15 A2982 RMK AO2 T10191153
KLMO 251035Z AUTO 27018G25KT 10SM CLR M02/M15 A2981 RMK AO2 T10171153
KLMO 251015Z AUTO 27010G14KT 10SM CLR M02/M16 A2982 RMK AO2 T10191156
KLMO 250955Z AUTO 21006KT 10SM CLR M02/M16 A2981 RMK AO2 T10211156
KLMO 250935Z AUTO 07006KT 10SM CLR M02/M16 A2983 RMK AO2 T10161160
KLMO 250915Z AUTO 15004KT 10SM CLR M01/M16 A2983 RMK AO2 T10131156
KLMO 250855Z AUTO 15006KT 10SM CLR M01/M15 A2984 RMK AO2 T10151155
KLMO 250835Z AUTO 20006KT 10SM CLR M01/M16 A2984 RMK AO2 T10091158
KLMO 250815Z AUTO 20005KT 10SM CLR M02/M16 A2984 RMK AO2 T10251156
KLMO 250755Z AUTO 21007KT 10SM CLR M02/M16 A2985 RMK AO2 T10201157
KLMO 250735Z AUTO 21008KT 10SM CLR M01/M16 A2985 RMK AO2 T10071159
KLMO 250715Z AUTO 22009KT 10SM CLR 00/M16 A2985 RMK AO2 T10051161
KLMO 250655Z AUTO 22006KT 10SM CLR M04/M16 A2986 RMK AO2 T10441157
KLMO 250635Z AUTO 00000KT 10SM SCT085 M07/M16 A2986 RMK AO2 T10671159
KLMO 250615Z AUTO 00000KT 10SM SCT095 M04/M16 A2986 RMK AO2 T10441161
KLMO 250555Z AUTO 14004KT 10SM SCT095 M04/M16 A2986 RMK AO2 T10411159
KLMO 250535Z AUTO 09003KT 10SM CLR M04/M16 A2986 RMK AO2 T10361157
KLMO 250515Z AUTO 12003KT 10SM CLR M02/M17 A2985 RMK AO2 T10191171
KLMO 250455Z AUTO 05006G17KT 10SM CLR M01/M17 A2985 RMK AO2 T10081168
KLMO 250435Z AUTO 00000KT 10SM CLR M01/M17 A2985 RMK AO2 T10141172
KLMO 250415Z AUTO 00000KT 10SM CLR M04/M16 A2985 RMK AO2 T10431162
KLMO 250355Z AUTO 13005KT 10SM CLR M03/M16 A2984 RMK AO2 T10311165
KLMO 250335Z AUTO 12004KT 10SM CLR M03/M17 A2982 RMK AO2 T10291167
KLMO 250235Z AUTO 14006KT 10SM CLR M03/M17 A2981 RMK AO2 T10351170
KLMO 250215Z AUTO 32003KT 10SM CLR M03/M17 A2980 RMK AO2 T10261168
KLMO 250155Z AUTO 00000KT 10SM CLR M02/M17 A2979 RMK AO2 T10201168
KLMO 250135Z AUTO 34010KT 10SM CLR M01/M16 A2978 RMK AO2 T10111159
KLMO 250115Z AUTO 33006KT 10SM CLR M03/M16 A2980 RMK AO2 T10291163
KLMO 250055Z AUTO 02003KT 10SM CLR M01/M16 A2979 RMK AO2 T10151159
KLMO 250035Z AUTO 00000KT 10SM CLR 00/M16 A2979 RMK AO2 T10011164
KLMO 250015Z AUTO 22005KT 10SM CLR 00/M15 A2978 RMK AO2 T10011150
KLMO 242355Z AUTO 25009KT 10SM CLR 01/M15 A2977 RMK AO2 T00141153
KLMO 242335Z AUTO 25013G16KT 10SM CLR 02/M15 A2976 RMK AO2 T00181154
KLMO 242315Z AUTO 24010G28KT 200V280 10SM CLR 02/M16 A2976 RMK AO2 T00201159
KLMO 242255Z AUTO 25017G25KT 10SM CLR 03/M14 A2976 RMK AO2 T00251143
KLMO 242235Z AUTO 24015G21KT 10SM CLR 03/M16 A2976 RMK AO2 T00321158
KLMO 242215Z AUTO 24013G21KT 10SM CLR 03/M15 A2975 RMK AO2 T00321154
KLMO 242155Z AUTO 26022G31KT 10SM CLR 02/M16 A2976 RMK AO2 T00231160
KLMO 242135Z AUTO 27023G30KT 10SM CLR 02/M15 A2975 RMK AO2 T00221150
KLMO 242115Z AUTO 28014G32KT 10SM CLR 03/M16 A2975 RMK AO2 T00271157
KLMO 242035Z AUTO 25015G30KT 7SM CLR 02/M14 A2974 RMK AO2 T00221144
KLMO 242015Z AUTO 25022G28KT 10SM CLR 03/M16 A2974 RMK AO2 T00301156
KLMO 241955Z AUTO 27027G37KT 3SM HZ CLR 02/M14 A2975 RMK AO2 T00171139
KLMO 241935Z AUTO 27022G34KT 3SM HZ CLR 01/M14 A2976 RMK AO2 T00121143
KLMO 241915Z AUTO 26019G34KT 3SM HZ CLR 02/M15 A2975 RMK AO2 T00191151
KLMO 241855Z AUTO 27013G18KT 10SM CLR 03/M16 A2975 RMK AO2 T00341162
KLMO 241835Z AUTO 26010G15KT 10SM CLR 04/M17 A2975 RMK AO2 T00411169
KLMO 241815Z AUTO 20004KT 10SM CLR 02/M17 A2976 RMK AO2 T00241167
KLMO 241755Z AUTO 28006KT 260V320 10SM CLR 03/M15 A2976 RMK AO2 T00301154
KLMO 241735Z AUTO 29018G25KT 3SM HZ CLR 02/M16 A2976 RMK AO2 T00151157
KLMO 241715Z AUTO 29009G20KT 3SM HZ CLR 01/M15 A2977 RMK AO2 T00081147
KLMO 241655Z AUTO 29015G22KT 260V320 3SM HZ CLR 01/M15 A2977 RMK AO2 P0005 T00051155
KLMO 241635Z AUTO 28007G20KT 250V310 7SM CLR 00/M16 A2977 RMK AO2 P0003 T00031161
KLMO 241615Z AUTO 27012G25KT 7SM CLR 00/M16 A2978 RMK AO2 P0001 T10011158
KLMO 241555Z AUTO 28009KT 10SM CLR M02/M14 A2979 RMK AO2 P0002 T10171139
KLMO 241535Z AUTO 27012G18KT 7SM CLR M01/M14 A2980 RMK AO2 P0002 T10101145
KLMO 241515Z AUTO 25010G17KT 10SM CLR M03/M09 A2980 RMK AO2 T10341092
KLMO 241455Z AUTO 29004KT 10SM CLR M07/M09 A2981 RMK AO2 T10741090
KLMO 241435Z AUTO 00000KT 2 1/2SM BR CLR M10/M12 A2982 RMK AO2 T11031118
KLMO 241415Z AUTO 24003KT 1/2SM FZFG VV005 M13/M15 A2982 RMK AO2 T11301148
KLMO 241355Z AUTO 21003KT 1SM BR VV007 M10/M12 A2982 RMK AO2 VIS 1/2V2 T11031122